Time;durP1;ratioP1;P1;durP2;ratioP2;P2;SDS_P1;SDS_P2;PMS_P1;PMS_P2;Temp;Humidity;BMP_temperature;BMP_pressure;BME280_temperature;BME280_humidity;BME280_pressure;Samples;Min_cycle;Max_cycle;Signal;HPM_P1;HPM_P2
2022/04/02 00:01:34;;;;;;;3.97;2.10;;;1.90;99.90;;;;;;4999852;28;20103;-89
2022/04/02 00:04:03;;;;;;;3.95;1.65;;;1.80;99.90;;;;;;5019781;28;20048;-87
2022/04/02 00:06:35;;;;;;;12.07;2.42;;;1.80;99.90;;;;;;5015628;28;20496;-88
2022/04/02 00:09:05;;;;;;;3.03;1.77;;;1.80;99.90;;;;;;5000099;28;20107;-87
2022/04/02 00:11:33;;;;;;;5.22;1.60;;;1.90;99.90;;;;;;4995347;28;20419;-87
2022/04/02 00:14:07;;;;;;;5.35;1.98;;;1.70;99.90;;;;;;5022852;28;20041;-87
2022/04/02 00:16:33;;;;;;;5.70;2.25;;;1.70;99.90;;;;;;5020334;28;20056;-87
2022/04/02 00:19:05;;;;;;;3.83;1.60;;;1.70;99.90;;;;;;5022025;28;20045;-87
2022/04/02 00:21:51;;;;;;;4.85;1.90;;;1.70;99.90;;;;;;5005593;28;20411;-86
2022/04/02 00:24:52;;;;;;;3.97;1.95;;;1.70;99.90;;;;;;5018438;28;20045;-87
2022/04/02 00:27:20;;;;;;;5.13;1.92;;;1.70;99.90;;;;;;5000138;28;20054;-87
2022/04/02 00:29:58;;;;;;;5.22;2.33;;;1.60;99.90;;;;;;4998705;28;20560;-87
2022/04/02 00:32:36;;;;;;;4.72;1.80;;;1.70;99.90;;;;;;4998540;28;20115;-89
2022/04/02 00:35:21;;;;;;;4.68;1.85;;;1.70;99.90;;;;;;4994264;28;20052;-88
2022/04/02 00:37:55;;;;;;;4.22;2.20;;;1.60;99.90;;;;;;4994158;28;20128;-89
2022/04/02 00:40:21;;;;;;;6.15;2.03;;;1.60;99.90;;;;;;4994677;28;20579;-88
2022/04/02 00:42:49;;;;;;;4.63;2.08;;;1.60;99.90;;;;;;4999606;28;20487;-89
2022/04/02 00:45:15;;;;;;;3.60;2.00;;;1.40;99.90;;;;;;4999485;28;20453;-88
2022/04/02 00:47:44;;;;;;;11.32;2.17;;;1.40;99.90;;;;;;5001621;28;20496;-87
2022/04/02 00:50:16;;;;;;;4.93;1.77;;;1.50;99.90;;;;;;5013173;28;20405;-87
2022/04/02 00:52:49;;;;;;;7.53;1.90;;;1.50;99.90;;;;;;5002823;28;20578;-87
2022/04/02 00:55:15;;;;;;;4.60;2.05;;;1.40;99.90;;;;;;4999144;28;20101;-88
2022/04/02 00:57:57;;;;;;;6.18;1.98;;;1.40;99.90;;;;;;5005398;28;20057;-87
2022/04/02 01:00:35;;;;;;;5.10;1.77;;;1.30;99.90;;;;;;4992176;28;20091;-87
2022/04/02 01:03:04;;;;;;;4.93;1.65;;;1.30;99.90;;;;;;5002098;28;20046;-87
2022/04/02 01:05:29;;;;;;;4.63;1.90;;;1.30;99.90;;;;;;5015669;28;20177;-88
2022/04/02 01:08:01;;;;;;;6.03;2.50;;;1.30;99.90;;;;;;5009141;28;20041;-87
2022/04/02 01:10:28;;;;;;;6.88;1.65;;;1.20;99.90;;;;;;5007958;28;20038;-87
2022/04/02 01:12:57;;;;;;;6.07;2.22;;;1.20;99.90;;;;;;5022379;28;20042;-88
2022/04/02 01:15:26;;;;;;;3.35;1.98;;;1.10;99.90;;;;;;5011377;28;20637;-87
2022/04/02 01:17:52;;;;;;;3.60;1.67;;;1.10;99.90;;;;;;5024062;28;20681;-87
2022/04/02 01:20:31;;;;;;;3.53;1.80;;;1.10;99.90;;;;;;5017270;28;20053;-88
2022/04/02 01:23:01;;;;;;;6.85;2.22;;;1.10;99.90;;;;;;5014657;28;20072;-87
2022/04/02 01:25:31;;;;;;;6.03;2.40;;;1.00;99.90;;;;;;5011712;28;20104;-87
2022/04/02 01:28:01;;;;;;;8.05;2.08;;;1.00;99.90;;;;;;4999424;28;20053;-87
2022/04/02 01:30:29;;;;;;;6.22;1.92;;;1.00;99.90;;;;;;4994962;28;20055;-87
2022/04/02 01:33:05;;;;;;;6.68;2.25;;;1.00;99.90;;;;;;4996743;28;20319;-87
2022/04/02 01:35:31;;;;;;;5.32;1.65;;;1.00;99.90;;;;;;5001631;28;20107;-87
2022/04/02 01:37:57;;;;;;;4.50;1.88;;;1.00;99.90;;;;;;4993324;28;20397;-86
2022/04/02 01:40:22;;;;;;;3.10;1.63;;;0.90;99.90;;;;;;4994893;28;20065;-87
2022/04/02 01:42:51;;;;;;;5.60;1.77;;;0.90;99.90;;;;;;4997850;28;20443;-87
2022/04/02 01:45:17;;;;;;;5.77;2.13;;;0.90;99.90;;;;;;5000305;28;20532;-89
2022/04/02 01:47:46;;;;;;;5.72;2.05;;;0.90;99.90;;;;;;4998800;28;20048;-87
2022/04/02 01:50:12;;;;;;;4.65;1.90;;;0.90;99.90;;;;;;5016258;28;20148;-89
2022/04/02 01:52:38;;;;;;;4.17;1.80;;;0.90;99.90;;;;;;5000801;28;20185;-87
2022/04/02 01:55:04;;;;;;;8.13;2.42;;;0.90;99.90;;;;;;5016370;28;20354;-88
2022/04/02 01:57:30;;;;;;;4.25;1.90;;;0.80;99.90;;;;;;5003861;28;20045;-87
2022/04/02 01:59:56;;;;;;;6.70;2.03;;;0.90;99.90;;;;;;4999457;28;20052;-89
2022/04/02 02:02:22;;;;;;;4.93;1.90;;;0.90;99.90;;;;;;5015816;28;20446;-86
2022/04/02 02:04:48;;;;;;;4.43;2.03;;;0.90;99.90;;;;;;4996232;28;20092;-87
2022/04/02 02:07:20;;;;;;;9.85;1.80;;;0.90;99.90;;;;;;4995477;28;20037;-88
2022/04/02 02:09:45;;;;;;;3.88;1.60;;;0.90;99.90;;;;;;4998662;28;20055;-88
2022/04/02 02:12:15;;;;;;;7.07;1.70;;;0.90;99.90;;;;;;4997630;28;20624;-88
2022/04/02 02:14:44;;;;;;;4.38;1.77;;;0.90;99.90;;;;;;4999027;28;20526;-88
2022/04/02 02:17:10;;;;;;;3.67;1.73;;;0.80;99.90;;;;;;5001153;28;20056;-87
2022/04/02 02:19:36;;;;;;;3.20;1.50;;;0.80;99.90;;;;;;5000963;28;20467;-87
2022/04/02 02:22:05;;;;;;;3.83;1.57;;;0.80;99.90;;;;;;4996446;28;20099;-87
2022/04/02 02:24:32;;;;;;;4.40;2.00;;;0.80;99.90;;;;;;4998211;28;20119;-85
2022/04/02 02:26:58;;;;;;;2.83;1.35;;;0.80;99.90;;;;;;5015079;28;20133;-89
2022/04/02 02:29:27;;;;;;;5.40;1.65;;;0.80;99.90;;;;;;4996067;28;20045;-88
2022/04/02 02:31:56;;;;;;;3.03;1.58;;;0.70;99.90;;;;;;5012962;28;20090;-86
2022/04/02 02:37:14;;;;;;;8.05;1.60;;;0.70;99.90;;;;;;5032519;28;20045;-90
2022/04/02 02:39:42;;;;;;;7.90;2.08;;;0.80;99.90;;;;;;5032688;28;20041;-89
2022/04/02 02:42:18;;;;;;;3.55;1.75;;;0.70;99.90;;;;;;5006559;28;20498;-87
2022/04/02 02:44:44;;;;;;;4.85;1.80;;;0.70;99.90;;;;;;4999288;28;20046;-87
2022/04/02 02:47:18;;;;;;;5.72;1.83;;;0.70;99.90;;;;;;5016603;28;20579;-89
2022/04/02 02:49:44;;;;;;;2.97;1.25;;;0.70;99.90;;;;;;5000360;28;20165;-87
2022/04/02 02:52:17;;;;;;;3.87;1.53;;;0.70;99.90;;;;;;5020088;28;20106;-88
2022/04/02 02:54:50;;;;;;;3.78;1.77;;;0.70;99.90;;;;;;5018486;28;20048;-87
2022/04/02 02:57:21;;;;;;;8.40;1.98;;;0.70;99.90;;;;;;4999221;28;20113;-87
2022/04/02 02:59:51;;;;;;;2.75;1.50;;;0.70;99.90;;;;;;4995992;28;20133;-87
2022/04/02 03:02:26;;;;;;;4.72;1.48;;;0.70;99.90;;;;;;5017916;28;20263;-87
2022/04/02 03:04:56;;;;;;;1.98;1.27;;;0.70;99.90;;;;;;5021186;28;20037;-87
2022/04/02 03:07:22;;;;;;;7.38;1.60;;;0.60;99.90;;;;;;5019539;28;20169;-88
2022/04/02 03:09:51;;;;;;;6.90;1.80;;;0.60;99.90;;;;;;5000714;28;20165;-87
2022/04/02 03:12:17;;;;;;;7.05;1.52;;;0.60;99.90;;;;;;5000506;28;20048;-87
2022/04/02 03:14:46;;;;;;;5.55;1.55;;;0.50;99.90;;;;;;5018901;28;20143;-87
2022/04/02 03:17:11;;;;;;;7.47;1.77;;;0.50;99.90;;;;;;5017510;28;20529;-88
2022/04/02 03:19:43;;;;;;;5.60;1.33;;;0.50;99.90;;;;;;5020882;28;20042;-88
2022/04/02 03:22:08;;;;;;;5.65;1.75;;;0.40;99.90;;;;;;5017183;28;20045;-84
2022/04/02 03:24:37;;;;;;;2.72;1.35;;;0.40;99.90;;;;;;5016434;28;20508;-87
2022/04/02 03:27:06;;;;;;;2.80;1.35;;;0.40;99.90;;;;;;5013432;28;20377;-87
2022/04/02 03:29:32;;;;;;;2.97;1.30;;;0.40;99.90;;;;;;5002379;28;20239;-87
2022/04/02 03:32:00;;;;;;;5.07;1.20;;;0.40;99.90;;;;;;5017652;28;20558;-86
2022/04/02 03:34:32;;;;;;;4.55;1.83;;;0.40;99.90;;;;;;4999953;28;20513;-86
2022/04/02 03:36:57;;;;;;;5.70;1.50;;;0.30;99.90;;;;;;5014522;28;20103;-88
2022/04/02 03:39:26;;;;;;;2.90;1.48;;;0.30;99.90;;;;;;4996726;28;20037;-87
2022/04/02 03:41:54;;;;;;;6.90;1.57;;;0.30;99.90;;;;;;5001899;28;20045;-87
2022/04/02 03:44:20;;;;;;;2.28;1.58;;;0.30;99.90;;;;;;5010712;28;20106;-85
2022/04/02 03:49:33;;;;;;;2.97;1.10;;;0.30;99.90;;;;;;5020006;28;20048;-87
2022/04/02 03:52:02;;;;;;;7.20;1.65;;;0.20;99.90;;;;;;4999449;28;20812;-85
2022/04/02 03:54:27;;;;;;;2.63;1.23;;;0.20;99.90;;;;;;5002761;28;20116;-86
2022/04/02 03:56:56;;;;;;;2.87;1.20;;;0.20;99.90;;;;;;5000290;28;20762;-87
2022/04/02 03:59:22;;;;;;;2.28;1.25;;;0.20;99.90;;;;;;4993559;28;20678;-87
2022/04/02 04:01:48;;;;;;;4.10;1.40;;;0.30;99.90;;;;;;5011070;28;20045;-88
2022/04/02 04:04:16;;;;;;;3.20;1.20;;;0.20;99.90;;;;;;5018117;28;20037;-87
2022/04/02 04:06:44;;;;;;;4.15;1.38;;;0.20;99.90;;;;;;5002352;28;20534;-89
2022/04/02 04:09:14;;;;;;;5.65;1.80;;;0.30;99.90;;;;;;5001480;28;20579;-88
2022/04/02 04:11:45;;;;;;;3.08;1.02;;;0.20;99.90;;;;;;4999960;28;20045;-89
2022/04/02 04:14:10;;;;;;;3.60;1.52;;;0.20;99.90;;;;;;4998839;28;20131;-86
2022/04/02 04:16:36;;;;;;;2.33;0.83;;;0.20;99.90;;;;;;4999278;28;20147;-87
2022/04/02 04:19:02;;;;;;;5.97;1.33;;;0.20;99.90;;;;;;5000749;28;20924;-87
2022/04/02 04:21:36;;;;;;;2.85;1.00;;;0.20;99.90;;;;;;5010317;28;20069;-87
2022/04/02 04:24:09;;;;;;;5.30;1.05;;;0.20;99.90;;;;;;5002218;28;20182;-86
2022/04/02 04:26:35;;;;;;;2.33;0.88;;;0.20;99.90;;;;;;5001253;28;20053;-88
2022/04/02 04:29:01;;;;;;;4.43;1.50;;;0.20;99.90;;;;;;5018562;28;20350;-87
2022/04/02 04:31:27;;;;;;;4.32;1.20;;;0.30;99.90;;;;;;4991343;28;20042;-88
2022/04/02 04:33:58;;;;;;;3.95;0.90;;;0.20;99.90;;;;;;4997085;28;20475;-87
2022/04/02 04:36:24;;;;;;;6.65;0.93;;;0.20;99.90;;;;;;4999687;28;20585;-87
2022/04/02 04:38:58;;;;;;;4.25;0.98;;;0.20;99.90;;;;;;4996891;28;20071;-88
2022/04/02 04:41:26;;;;;;;5.38;1.05;;;0.20;99.90;;;;;;4997495;28;20045;-87
2022/04/02 04:43:55;;;;;;;4.47;1.48;;;0.20;99.90;;;;;;5016917;28;20124;-87
2022/04/02 04:46:24;;;;;;;2.25;0.98;;;0.20;99.90;;;;;;5000573;28;20109;-87
2022/04/02 04:48:50;;;;;;;2.45;0.90;;;0.20;99.90;;;;;;5001835;28;20041;-88
2022/04/02 04:51:19;;;;;;;4.03;1.17;;;0.20;99.90;;;;;;5013663;28;20669;-88
2022/04/02 04:53:47;;;;;;;3.58;1.20;;;0.20;99.90;;;;;;5000626;28;20042;-88
2022/04/02 04:56:13;;;;;;;3.38;1.20;;;0.20;99.90;;;;;;5020785;28;20045;-87
2022/04/02 04:58:39;;;;;;;3.43;1.00;;;0.30;99.90;;;;;;5002650;28;20099;-87
2022/04/02 05:01:05;;;;;;;5.30;1.70;;;0.20;99.90;;;;;;5013675;28;20041;-87
2022/04/02 05:03:35;;;;;;;3.27;0.93;;;0.30;99.90;;;;;;4995964;28;20315;-88
2022/04/02 05:06:03;;;;;;;3.42;1.05;;;0.30;99.90;;;;;;4996114;28;20053;-86
2022/04/02 05:08:32;;;;;;;9.27;1.00;;;0.30;99.90;;;;;;4999569;28;20038;-87
2022/04/02 05:10:59;;;;;;;2.30;1.08;;;0.30;99.90;;;;;;5012055;28;20461;-88
2022/04/02 05:13:31;;;;;;;5.65;1.17;;;0.30;99.90;;;;;;5000072;28;20445;-86
2022/04/02 05:15:57;;;;;;;7.97;0.82;;;0.30;99.90;;;;;;5014707;28;20084;-88
2022/04/02 05:18:26;;;;;;;3.88;1.02;;;0.30;99.90;;;;;;4998110;28;20173;-85
2022/04/02 05:20:56;;;;;;;3.53;0.82;;;0.30;99.90;;;;;;4992443;28;20041;-88
2022/04/02 05:23:22;;;;;;;3.58;1.00;;;0.30;99.90;;;;;;5007565;28;20405;-87
2022/04/02 05:25:48;;;;;;;3.40;1.13;;;0.30;99.90;;;;;;4999752;28;20049;-87
2022/04/02 05:28:19;;;;;;;2.10;0.70;;;0.30;99.90;;;;;;4993356;28;20617;-86
2022/04/02 05:30:45;;;;;;;2.78;0.90;;;0.30;99.90;;;;;;4997321;28;20123;-87
2022/04/02 05:33:11;;;;;;;4.78;1.20;;;0.30;99.90;;;;;;4990856;28;20053;-87
2022/04/02 05:35:44;;;;;;;2.30;1.27;;;0.40;99.90;;;;;;4998657;28;20403;-87
2022/04/02 05:38:13;;;;;;;4.38;0.80;;;0.40;99.90;;;;;;5000987;28;20680;-87
2022/04/02 05:40:39;;;;;;;3.83;1.77;;;0.40;99.90;;;;;;5000666;28;20041;-87
2022/04/02 05:43:06;;;;;;;2.67;1.00;;;0.50;99.90;;;;;;5014034;28;20300;-87
2022/04/02 05:45:34;;;;;;;3.42;1.17;;;0.50;99.90;;;;;;4992080;28;20741;-87
2022/04/02 05:48:00;;;;;;;5.82;1.88;;;0.50;99.90;;;;;;5000032;28;20099;-87
2022/04/02 05:50:26;;;;;;;3.75;1.40;;;0.50;99.90;;;;;;4987943;28;20041;-86
2022/04/02 05:52:55;;;;;;;2.50;1.13;;;0.60;99.90;;;;;;5011175;28;20644;-86
2022/04/02 05:55:20;;;;;;;3.22;1.30;;;0.60;99.90;;;;;;5013537;28;20049;-86
2022/04/02 05:57:48;;;;;;;2.53;1.00;;;0.70;99.90;;;;;;4999187;28;20048;-86
2022/04/02 06:00:18;;;;;;;5.15;1.20;;;0.70;99.90;;;;;;4997940;28;20075;-87
2022/04/02 06:02:45;;;;;;;3.65;0.82;;;0.70;99.90;;;;;;4987953;28;20127;-86
2022/04/02 06:05:15;;;;;;;3.20;1.45;;;0.80;99.90;;;;;;5011487;28;20579;-84
2022/04/02 06:07:41;;;;;;;3.70;0.93;;;0.80;99.90;;;;;;4997733;28;20418;-86
2022/04/02 06:10:09;;;;;;;3.22;1.23;;;0.80;99.90;;;;;;5020335;28;20581;-86
2022/04/02 06:12:35;;;;;;;3.08;1.30;;;0.90;99.90;;;;;;4998999;28;20045;-87
2022/04/02 06:15:01;;;;;;;7.65;1.35;;;0.90;99.90;;;;;;5001214;28;20484;-86
2022/04/02 06:17:27;;;;;;;3.08;1.80;;;1.00;99.90;;;;;;5005567;28;20041;-86
2022/04/02 06:19:53;;;;;;;4.90;1.20;;;1.00;99.90;;;;;;4999267;28;20319;-87
2022/04/02 06:22:19;;;;;;;2.30;1.50;;;1.00;99.90;;;;;;4996967;28;20045;-87
2022/04/02 06:24:44;;;;;;;2.97;1.23;;;1.10;99.90;;;;;;4999778;28;20052;-86
2022/04/02 06:27:10;;;;;;;2.63;1.27;;;1.20;99.90;;;;;;5001451;28;20041;-86
2022/04/02 06:29:45;;;;;;;2.83;0.90;;;1.10;99.90;;;;;;4992585;28;20296;-86
2022/04/02 06:32:11;;;;;;;2.53;1.10;;;1.20;99.90;;;;;;5006687;28;20356;-86
2022/04/02 06:34:37;;;;;;;2.70;1.00;;;1.20;99.90;;;;;;5012370;28;20129;-86
2022/04/02 06:37:02;;;;;;;4.73;1.20;;;1.30;99.90;;;;;;4991865;28;20514;-87
2022/04/02 06:39:28;;;;;;;1.83;1.00;;;1.30;99.90;;;;;;4991283;28;20041;-86
2022/04/02 06:41:55;;;;;;;2.47;1.10;;;1.40;99.90;;;;;;4992757;28;20725;-84
2022/04/02 06:44:20;;;;;;;2.97;1.48;;;1.40;99.90;;;;;;4994973;28;20033;-86
2022/04/02 06:46:46;;;;;;;3.10;1.50;;;1.50;99.90;;;;;;4995972;28;20447;-87
2022/04/02 06:49:12;;;;;;;5.20;1.07;;;1.60;99.90;;;;;;4997446;28;20034;-86
2022/04/02 06:51:37;;;;;;;4.20;0.93;;;1.60;99.90;;;;;;4998021;28;20045;-86
2022/04/02 06:54:05;;;;;;;5.63;1.60;;;1.60;99.90;;;;;;5009866;28;20035;-86
2022/04/02 06:56:31;;;;;;;1.48;1.00;;;1.70;99.90;;;;;;4991950;28;20049;-86
2022/04/02 06:58:59;;;;;;;2.60;1.20;;;1.70;99.90;;;;;;4992068;28;20426;-86
2022/04/02 07:01:24;;;;;;;6.78;1.30;;;1.70;99.90;;;;;;4993191;28;20322;-84
2022/04/02 07:03:50;;;;;;;2.20;1.27;;;1.80;99.90;;;;;;4995501;28;20037;-86
2022/04/02 07:06:16;;;;;;;5.80;1.50;;;1.80;99.90;;;;;;4997707;28;20116;-86
2022/04/02 07:08:41;;;;;;;5.40;1.70;;;1.90;99.90;;;;;;4991386;28;20338;-86
2022/04/02 07:11:07;;;;;;;4.57;1.90;;;1.90;99.90;;;;;;5011898;28;20037;-87
2022/04/02 07:13:32;;;;;;;3.10;1.23;;;2.00;99.90;;;;;;5008153;28;20041;-86
2022/04/02 07:15:58;;;;;;;4.80;1.63;;;2.00;99.90;;;;;;5008087;28;20727;-87
2022/04/02 07:18:25;;;;;;;3.43;1.43;;;2.10;99.90;;;;;;5007692;28;20455;-86
2022/04/02 07:20:54;;;;;;;4.75;1.10;;;2.10;99.90;;;;;;4996406;28;20044;-86
2022/04/02 07:23:20;;;;;;;3.08;1.13;;;2.20;99.90;;;;;;4998884;28;20156;-87
2022/04/02 07:25:48;;;;;;;4.10;1.48;;;2.20;99.90;;;;;;4994278;28;20031;-87
2022/04/02 07:28:17;;;;;;;6.47;1.48;;;2.30;99.90;;;;;;5000622;28;20037;-86
2022/04/02 07:30:43;;;;;;;3.38;1.65;;;2.30;99.90;;;;;;4987395;28;20445;-86
2022/04/02 07:33:08;;;;;;;4.77;1.50;;;2.40;99.90;;;;;;4998057;28;20644;-86
2022/04/02 07:35:41;;;;;;;3.77;1.30;;;2.60;99.90;;;;;;4996095;28;20354;-86
2022/04/02 07:38:53;;;;;;;2.85;1.50;;;2.60;99.90;;;;;;5000059;28;20172;-86
2022/04/02 07:41:29;;;;;;;4.07;1.70;;;2.60;99.90;;;;;;4989494;28;20049;-86
2022/04/02 07:44:19;;;;;;;4.18;1.95;;;2.70;99.90;;;;;;5016072;28;20053;-86
2022/04/02 07:46:47;;;;;;;4.15;1.50;;;2.80;99.90;;;;;;4997043;28;20566;-87
2022/04/02 07:49:20;;;;;;;2.70;1.08;;;2.80;99.90;;;;;;4999210;28;20049;-87
2022/04/02 07:51:53;;;;;;;3.90;1.50;;;2.90;99.90;;;;;;5014355;28;20045;-86
2022/04/02 07:54:29;;;;;;;4.60;1.30;;;2.80;99.90;;;;;;5011457;28;20073;-87
2022/04/02 07:57:03;;;;;;;4.60;1.60;;;2.90;99.90;;;;;;5010736;28;20049;-87
2022/04/02 07:59:38;;;;;;;4.28;1.48;;;2.90;99.90;;;;;;5013116;28;20474;-85
2022/04/02 08:04:56;;;;;;;2.93;1.13;;;3.00;99.90;;;;;;5014057;28;20423;-85
2022/04/02 08:07:38;;;;;;;2.55;1.10;;;3.00;99.90;;;;;;4996591;28;20033;-87
2022/04/02 08:10:18;;;;;;;7.07;1.63;;;3.00;99.90;;;;;;5014010;28;20048;-86
2022/04/02 08:12:55;;;;;;;4.15;1.77;;;3.10;99.90;;;;;;5001404;28;20056;-87
2022/04/02 08:15:22;;;;;;;4.57;1.40;;;3.20;99.90;;;;;;4998839;28;20615;-87
2022/04/02 08:17:55;;;;;;;4.45;1.27;;;3.30;99.90;;;;;;5006573;28;20073;-87
2022/04/02 08:20:26;;;;;;;4.50;1.17;;;3.30;99.90;;;;;;5015078;28;20041;-87
2022/04/02 08:22:56;;;;;;;3.15;1.30;;;3.40;99.90;;;;;;5015835;28;20041;-87
2022/04/02 08:25:27;;;;;;;3.45;1.42;;;3.50;99.90;;;;;;5000604;28;20159;-89
2022/04/02 08:28:00;;;;;;;3.47;1.50;;;3.60;99.90;;;;;;4994592;28;20065;-88
2022/04/02 08:30:31;;;;;;;3.85;1.67;;;3.60;99.90;;;;;;4999814;28;20048;-86
2022/04/02 08:33:36;;;;;;;3.15;1.20;;;3.70;99.90;;;;;;5011075;28;20107;-83
2022/04/02 08:36:24;;;;;;;5.10;1.52;;;3.80;99.90;;;;;;5009643;28;20080;-86
2022/04/02 08:39:15;;;;;;;4.60;1.35;;;3.90;99.90;;;;;;5015863;28;20132;-86
2022/04/02 08:42:05;;;;;;;2.35;1.27;;;3.90;99.90;;;;;;4984035;28;20651;-88
2022/04/02 08:45:16;;;;;;;3.72;1.35;;;4.00;99.90;;;;;;4999704;28;20041;-90
2022/04/02 08:48:23;;;;;;;2.55;1.23;;;4.10;99.90;;;;;;5027295;28;20195;-87
2022/04/02 08:51:50;;;;;;;4.53;1.38;;;4.10;99.90;;;;;;4997826;28;20773;-89
2022/04/02 08:54:33;;;;;;;3.08;1.10;;;4.30;99.90;;;;;;4993225;28;20056;-89
2022/04/02 08:57:18;;;;;;;1.63;1.00;;;4.60;99.90;;;;;;4995033;28;20041;-88
2022/04/02 09:00:01;;;;;;;7.80;1.10;;;4.80;99.90;;;;;;5007342;28;20228;-88
2022/04/02 09:02:54;;;;;;;3.05;1.13;;;5.00;99.90;;;;;;4997583;28;20046;-88
2022/04/02 09:09:37;;;;;;;2.10;0.82;;;5.40;97.60;;;;;;5025268;28;20050;-87
2022/04/02 09:12:21;;;;;;;4.95;1.40;;;5.60;96.20;;;;;;4997190;28;20443;-90
2022/04/02 09:14:49;;;;;;;4.75;1.40;;;5.70;93.90;;;;;;5013576;28;20431;-88
2022/04/02 09:17:43;;;;;;;5.53;1.20;;;5.80;93.10;;;;;;4998729;28;20052;-90
2022/04/02 09:20:21;;;;;;;3.50;0.98;;;5.90;90.80;;;;;;5012192;28;20107;-87
2022/04/02 09:23:10;;;;;;;2.15;0.52;;;6.10;90.30;;;;;;5014172;28;20037;-90
2022/04/02 09:26:35;;;;;;;6.15;1.27;;;6.20;82.00;;;;;;4998034;28;20080;-87
2022/04/02 09:29:19;;;;;;;3.88;1.50;;;6.30;69.80;;;;;;5034202;22;20049;-72
2022/04/02 09:32:24;;;;;;;3.53;1.27;;;6.30;69.90;;;;;;5047234;28;20067;-72
2022/04/02 09:35:14;;;;;;;4.43;1.27;;;6.20;66.00;;;;;;5038710;28;20124;-72
2022/04/02 09:38:01;;;;;;;3.40;1.63;;;6.10;68.30;;;;;;5030144;28;20048;-72
2022/04/02 09:40:48;;;;;;;1.67;0.80;;;6.00;69.00;;;;;;5043119;28;20045;-73
2022/04/02 09:43:37;;;;;;;2.45;0.70;;;5.90;66.90;;;;;;5031136;28;20044;-71
2022/04/02 09:46:15;;;;;;;1.48;0.70;;;5.80;66.50;;;;;;5031842;28;20132;-72
2022/04/02 09:49:15;;;;;;;3.55;1.02;;;5.70;67.60;;;;;;5026765;28;20106;-72
2022/04/02 09:51:47;;;;;;;3.00;0.82;;;5.80;69.40;;;;;;5041734;28;20110;-72
2022/04/02 09:54:38;;;;;;;2.60;0.93;;;5.80;70.30;;;;;;5047563;28;20453;-72
2022/04/02 09:57:09;;;;;;;0.98;0.60;;;5.80;66.20;;;;;;5036844;28;20135;-72
2022/04/02 09:59:59;;;;;;;2.45;0.75;;;5.80;66.90;;;;;;5008315;28;20567;-72
2022/04/02 10:02:47;;;;;;;2.80;1.00;;;5.80;65.80;;;;;;5037705;28;20128;-72
2022/04/02 10:05:16;;;;;;;3.13;1.13;;;5.80;65.30;;;;;;5042643;28;20159;-72
2022/04/02 10:08:02;;;;;;;2.13;1.00;;;5.80;65.60;;;;;;5034090;28;20040;-72
2022/04/02 10:10:29;;;;;;;1.88;1.00;;;5.80;66.60;;;;;;5044632;28;20047;-72
2022/04/02 10:12:55;;;;;;;2.47;1.00;;;5.90;66.80;;;;;;5060884;28;20554;-72
2022/04/02 10:15:22;;;;;;;3.20;0.90;;;6.00;66.20;;;;;;5052105;28;20118;-72
2022/04/02 10:17:53;;;;;;;5.38;0.98;;;6.20;67.40;;;;;;5035792;28;20050;-72
2022/04/02 10:20:21;;;;;;;3.33;0.98;;;6.50;65.70;;;;;;5032469;28;20045;-72
2022/04/02 10:23:00;;;;;;;3.38;0.95;;;6.60;64.60;;;;;;5054590;28;20119;-72
2022/04/02 10:25:32;;;;;;;3.05;0.95;;;6.70;63.30;;;;;;5040409;28;20045;-72
2022/04/02 10:28:00;;;;;;;2.25;0.77;;;6.60;61.60;;;;;;5041364;28;20495;-72
2022/04/02 10:30:28;;;;;;;1.33;0.63;;;6.50;60.60;;;;;;5037380;28;20303;-72
2022/04/02 10:35:46;;;;;;;2.53;0.80;;;6.60;60.60;;;;;;5033402;28;20112;-72
2022/04/02 10:38:34;;;;;;;5.05;0.65;;;6.60;60.00;;;;;;5023977;28;20036;-72
2022/04/02 10:41:06;;;;;;;3.33;0.75;;;6.70;59.20;;;;;;5039236;28;20036;-72
2022/04/02 10:43:40;;;;;;;3.40;1.35;;;6.90;60.20;;;;;;5055524;28;20068;-72
2022/04/02 10:46:06;;;;;;;3.55;1.00;;;7.30;60.60;;;;;;5052045;28;20075;-72
2022/04/02 10:48:35;;;;;;;4.47;0.80;;;7.60;61.00;;;;;;5051688;28;20036;-72
2022/04/02 10:51:02;;;;;;;2.75;0.70;;;7.80;58.40;;;;;;5040819;28;20048;-72
2022/04/02 10:53:31;;;;;;;4.25;0.98;;;8.10;57.20;;;;;;5042065;28;20064;-72
2022/04/02 10:56:00;;;;;;;1.73;0.68;;;8.30;57.00;;;;;;5061625;28;20048;-72
2022/04/02 10:58:30;;;;;;;2.33;0.90;;;8.40;56.70;;;;;;5030132;28;20087;-72
2022/04/02 11:00:57;;;;;;;1.80;0.60;;;8.50;56.70;;;;;;5035976;28;20067;-72
2022/04/02 11:03:55;;;;;;;4.28;0.75;;;8.60;55.60;;;;;;5038035;28;20048;-72
2022/04/02 11:06:48;;;;;;;3.17;0.68;;;8.70;55.50;;;;;;5037372;28;20036;-72
2022/04/02 11:09:27;;;;;;;3.22;0.70;;;8.50;55.10;;;;;;5030553;28;20114;-72
2022/04/02 11:11:53;;;;;;;0.85;0.50;;;8.30;55.90;;;;;;5035359;28;20049;-72
2022/04/02 11:14:23;;;;;;;5.47;0.80;;;8.10;56.60;;;;;;5051956;28;20040;-72
2022/04/02 11:16:48;;;;;;;1.92;0.70;;;7.80;58.10;;;;;;5051775;28;20521;-72
2022/04/02 11:22:08;;;;;;;3.38;0.70;;;7.50;60.10;;;;;;5043142;28;20507;-72
2022/04/02 11:25:03;;;;;;;1.55;0.57;;;7.30;60.80;;;;;;5021523;28;20063;-70
2022/04/02 11:27:29;;;;;;;3.10;0.50;;;7.30;58.80;;;;;;5030972;28;20494;-71
2022/04/02 11:30:03;;;;;;;3.03;0.60;;;7.30;58.20;;;;;;5045365;28;20103;-70
2022/04/02 11:32:40;;;;;;;1.30;0.50;;;7.50;59.10;;;;;;5040890;28;20044;-71
2022/04/02 11:35:29;;;;;;;4.85;0.85;;;7.60;57.60;;;;;;5033690;28;20350;-71
2022/04/02 11:38:10;;;;;;;5.43;0.80;;;7.60;58.00;;;;;;5058187;28;20571;-71
2022/04/02 11:40:42;;;;;;;2.83;0.70;;;7.60;57.20;;;;;;5047120;28;20040;-71
2022/04/02 11:43:07;;;;;;;3.78;0.98;;;7.60;57.70;;;;;;5049254;28;20045;-70
2022/04/02 11:45:36;;;;;;;2.30;0.80;;;7.60;58.20;;;;;;5010880;28;20402;-71
2022/04/02 11:48:10;;;;;;;4.97;0.77;;;7.90;57.70;;;;;;5052946;22;20045;-68
2022/04/02 11:50:45;;;;;;;2.33;0.35;;;8.10;56.00;;;;;;5042387;28;20463;-69
2022/04/02 11:53:12;;;;;;;1.77;0.68;;;8.10;55.60;;;;;;5033908;28;20057;-69
2022/04/02 11:55:39;;;;;;;4.45;0.88;;;8.20;56.60;;;;;;5025118;28;20040;-69
2022/04/02 11:58:13;;;;;;;2.25;0.95;;;8.30;57.10;;;;;;5031651;28;20087;-69
2022/04/02 12:00:44;;;;;;;2.25;1.35;;;8.40;57.20;;;;;;5029864;28;20371;-69
2022/04/02 12:03:21;;;;;;;2.35;0.80;;;8.70;57.20;;;;;;5035111;28;20037;-69
2022/04/02 12:05:48;;;;;;;6.65;0.85;;;8.80;56.40;;;;;;5041923;28;20065;-69
2022/04/02 12:08:32;;;;;;;;;;;8.90;56.70;;;;;;5037522;28;20047;-69
2022/04/02 12:10:59;;;;;;;4.32;0.60;;;9.00;55.50;;;;;;5027464;28;20392;-69
2022/04/02 12:13:26;;;;;;;4.00;0.93;;;9.20;57.00;;;;;;5026930;28;20041;-69
2022/04/02 12:16:05;;;;;;;1.40;0.60;;;9.20;53.60;;;;;;5038222;28;20050;-69
2022/04/02 12:18:32;;;;;;;4.10;0.90;;;9.00;52.60;;;;;;5026508;28;20383;-69
2022/04/02 12:21:16;;;;;;;3.20;0.95;;;8.70;52.40;;;;;;5031068;28;20076;-69
2022/04/02 12:23:56;;;;;;;2.70;0.70;;;8.60;51.40;;;;;;5029149;28;20041;-69
2022/04/02 12:26:24;;;;;;;2.85;0.65;;;8.70;53.00;;;;;;5032650;28;20049;-69
2022/04/02 12:28:58;;;;;;;1.85;0.93;;;8.90;53.90;;;;;;5025982;28;20069;-69
2022/04/02 12:31:27;;;;;;;2.65;0.95;;;9.20;52.90;;;;;;5032338;28;20385;-69
2022/04/02 12:33:54;;;;;;;2.00;0.60;;;9.30;52.30;;;;;;5025741;28;20257;-69
2022/04/02 12:36:34;;;;;;;3.67;0.60;;;9.20;51.70;;;;;;5043929;28;20065;-69
2022/04/02 12:39:04;;;;;;;1.70;0.70;;;9.00;51.40;;;;;;5033770;28;20484;-69
2022/04/02 12:41:32;;;;;;;3.03;0.80;;;8.60;51.90;;;;;;5040894;28;20498;-74
2022/04/02 12:44:05;;;;;;;3.13;0.57;;;8.30;53.10;;;;;;5019312;28;20047;-75
2022/04/02 12:46:31;;;;;;;1.98;0.98;;;8.10;53.60;;;;;;5031850;28;20116;-69
2022/04/02 12:48:58;;;;;;;3.23;0.57;;;7.90;53.50;;;;;;5039531;28;20056;-69
2022/04/02 12:51:23;;;;;;;;;;;7.80;53.50;;;;;;5034733;28;20119;-69
2022/04/02 12:54:01;;;;;;;1.58;0.60;;;7.60;52.50;;;;;;5039926;28;20381;-69
2022/04/02 12:56:29;;;;;;;2.83;0.60;;;7.50;53.20;;;;;;5033897;28;20122;-69
2022/04/02 12:58:56;;;;;;;2.20;0.80;;;7.60;52.90;;;;;;5015179;28;20351;-69
2022/04/02 13:01:32;;;;;;;3.28;0.80;;;7.90;53.20;;;;;;5032124;28;20436;-69
2022/04/02 13:03:59;;;;;;;3.85;0.80;;;8.20;53.50;;;;;;5035973;28;20049;-69
2022/04/02 13:06:26;;;;;;;2.17;0.73;;;8.60;52.70;;;;;;5036240;28;20056;-69
2022/04/02 13:09:04;;;;;;;3.97;0.90;;;8.80;51.60;;;;;;5028894;28;20429;-69
2022/04/02 13:11:56;;;;;;;3.47;0.80;;;8.80;50.80;;;;;;5038789;28;20037;-69
2022/04/02 13:14:27;;;;;;;2.38;0.57;;;8.80;50.40;;;;;;5033051;28;20445;-69
2022/04/02 13:17:07;;;;;;;3.58;0.77;;;8.80;51.50;;;;;;5031848;28;20428;-69
2022/04/02 13:22:50;;;;;;;1.55;0.68;;;9.10;49.40;;;;;;5041433;28;20044;-71
2022/04/02 13:25:18;;;;;;;1.45;0.70;;;8.90;50.80;;;;;;5045428;28;20041;-68
2022/04/02 13:28:24;;;;;;;1.95;0.88;;;9.00;51.10;;;;;;5039433;28;20036;-68
2022/04/02 13:30:52;;;;;;;1.90;0.68;;;9.10;50.20;;;;;;5037350;28;20033;-68
2022/04/02 13:33:41;;;;;;;2.38;0.43;;;9.20;50.60;;;;;;5034230;28;20044;-68
2022/04/02 13:36:25;;;;;;;2.45;0.70;;;9.30;47.30;;;;;;5035347;28;20090;-68
2022/04/02 13:39:00;;;;;;;3.17;0.65;;;9.30;48.00;;;;;;5038200;28;20513;-67
2022/04/02 13:41:35;;;;;;;4.30;0.60;;;9.30;48.80;;;;;;5035966;28;20049;-68
2022/04/02 13:44:07;;;;;;;2.13;0.77;;;9.60;49.50;;;;;;5034757;28;20504;-67
2022/04/02 13:46:38;;;;;;;3.75;0.75;;;9.90;49.00;;;;;;5031244;28;20417;-67